M I D A S
Marine Information and Data Acquisition System
Tripno 694 of the Zeeleeuw from 2004-04-14 06:14:40 to 2004-04-14 15:42:14
Back to CruiseResearch ActivitiesStationsMapUnderway DataData graphs

EquipmentUnitsComment
TimeDGPSUTC
LatitudeDGPSDM.mWGS84
LongitudeDGPSDM.mWGS84
HeadingGyrodeg 
SOGDGPSknotsSpeed over ground
COGDGPSdegCourse over ground
DepthEcho soundermeters200 kHz
Missing or incorrect values are displayed as -999
Navigation data collected by the RV Zeeleeuw from 2004-04-14 06:14:40 to 2004-04-14 15:42:14
Time Latitude Longitude Heading SOG COG Depth
2004-04-14 06:15:44 51°13.662 2°55.936 112.3 3.3 289 -999
2004-04-14 06:16:44 51°13.676 2°55.824 97.7 4.8 275 -999
2004-04-14 06:17:43 51°13.674 2°55.752 70.7 0.5 21 12.5
2004-04-14 06:18:43 51°13.715 2°55.758 350.2 3.8 337 14.7
2004-04-14 06:19:44 51°13.789 2°55.677 326.2 6.6 323 10.7
2004-04-14 06:20:43 51°13.893 2°55.583 339.5 7.7 334 11.1
2004-04-14 06:21:43 51°14.013 2°55.497 341.8 8.1 337 11.6
2004-04-14 06:22:43 51°14.145 2°55.402 339.6 9.5 333 12.5
2004-04-14 06:23:44 51°14.281 2°55.235 321.8 10.7 315 12.4
2004-04-14 06:24:43 51°14.403 2°55.007 322.4 12.7 324 12.3
2004-04-14 06:25:43 51°14.593 2°54.818 327.8 13.7 325 11.2
2004-04-14 06:26:43 51°14.784 2°54.614 328.6 13.8 326 11
2004-04-14 06:27:43 51°14.973 2°54.41 328 13.7 325 10.1
2004-04-14 06:28:43 51°15.162 2°54.208 329.6 13.8 328 10.4
2004-04-14 06:29:44 51°15.363 2°54.014 331.9 13.9 329 11.3
2004-04-14 06:30:43 51°15.557 2°53.828 332.4 13.9 329 11.9
2004-04-14 06:31:44 51°15.757 2°53.636 332.5 13.8 329 12.7
2004-04-14 06:32:43 51°15.952 2°53.449 332.5 13.9 330 13.2
2004-04-14 06:33:43 51°16.159 2°53.291 340.1 13.7 337 13.6
2004-04-14 06:34:43 51°16.368 2°53.149 339.6 13.7 336 13.9
2004-04-14 06:35:43 51°16.576 2°53.006 339.3 13.7 337 13.3
2004-04-14 06:36:44 51°16.788 2°52.863 341.1 13.6 339 11.5
2004-04-14 06:37:43 51°17 2°52.754 349.8 13.8 347 11.2
2004-04-14 06:38:43 51°17.225 2°52.673 350.8 13.9 350 11.1
2004-04-14 06:39:43 51°17.457 2°52.638 358.5 14 354 11.7
2004-04-14 06:40:43 51°17.689 2°52.603 357.9 14 354 11.6
2004-04-14 06:41:44 51°17.925 2°52.565 357.7 14 354 12
2004-04-14 06:42:43 51°18.154 2°52.526 357.9 14 354 12.3
2004-04-14 06:43:43 51°18.388 2°52.496 359.4 14 356 12.7
2004-04-14 06:44:43 51°18.621 2°52.468 359.7 14 356 13.2
2004-04-14 06:45:43 51°18.854 2°52.439 359.5 14.1 356 14.1
2004-04-14 06:46:43 51°19.086 2°52.413 0.7 14.1 358 15.2
2004-04-14 06:47:44 51°19.326 2°52.438 10.1 14.2 7 16.3
2004-04-14 06:48:43 51°19.555 2°52.509 17.4 14.4 15 16.9
2004-04-14 06:49:43 51°19.781 2°52.638 24.3 14.5 20 17.4
2004-04-14 06:50:43 51°20.006 2°52.771 24.5 14.4 20 17.7
2004-04-14 06:51:44 51°20.237 2°52.902 23.7 14.5 20 17.8
2004-04-14 06:52:43 51°20.456 2°53.046 27.2 14.5 23 17.9
2004-04-14 06:53:43 51°20.674 2°53.207 29.7 14.4 25 18
2004-04-14 06:54:44 51°20.897 2°53.369 28.3 14.4 24 18.2
2004-04-14 06:55:43 51°21.111 2°53.525 28.2 14.4 24 18.1
2004-04-14 06:56:44 51°21.334 2°53.687 28.7 14.5 25 18.2
2004-04-14 06:57:43 51°21.548 2°53.847 28.3 14.4 25 18.3
2004-04-14 06:58:44 51°21.77 2°54.012 28.4 14.4 24 18.2
2004-04-14 06:59:44 51°21.989 2°54.174 28.7 14.4 24 20.4
2004-04-14 07:00:43 51°22.204 2°54.333 27.5 14.4 24 19.9
2004-04-14 07:01:43 51°22.422 2°54.494 28.3 14.4 25 20.8
2004-04-14 07:02:43 51°22.639 2°54.657 28.5 14.4 25 21.9
2004-04-14 07:03:43 51°22.859 2°54.819 28.7 14.5 24 21.4
2004-04-14 07:04:43 51°23.077 2°54.978 27.7 14.5 24 21
2004-04-14 07:05:43 51°23.297 2°55.135 28.2 14.5 24 21
2004-04-14 07:06:43 51°23.518 2°55.294 27.9 14.5 24 20
2004-04-14 07:07:43 51°23.738 2°55.453 28.3 14.6 24 18.8
2004-04-14 07:08:43 51°23.958 2°55.618 29.5 14.7 25 21.6
2004-04-14 07:09:43 51°24.18 2°55.785 29 14.7 26 24
2004-04-14 07:10:43 51°24.401 2°55.958 32.6 14.8 29 25.4
2004-04-14 07:11:43 51°24.613 2°56.158 34.8 14.8 30 24.5
2004-04-14 07:12:43 51°24.824 2°56.361 34.8 14.8 31 25.9
2004-04-14 07:13:43 51°25.037 2°56.562 34.1 14.8 30 25.7
2004-04-14 07:14:43 51°25.249 2°56.762 33.8 14.7 31 26.3
2004-04-14 07:15:44 51°25.464 2°56.966 34.6 14.7 31 25.4
2004-04-14 07:16:44 51°25.675 2°57.168 34.3 14.8 31 23.6
2004-04-14 07:17:43 51°25.882 2°57.365 35 14.8 31 21.4
2004-04-14 07:18:44 51°26.097 2°57.567 34.6 14.7 31 19.8
2004-04-14 07:19:43 51°26.302 2°57.765 34.5 14.5 31 18.6
2004-04-14 07:20:43 51°26.506 2°57.967 34.3 14.4 32 18.4
2004-04-14 07:21:44 51°26.713 2°58.17 34.6 14.3 32 18
2004-04-14 07:22:43 51°26.908 2°58.379 40.4 14.5 39 17.8
2004-04-14 07:23:43 51°27.099 2°58.614 41.2 14.4 37 18.9
2004-04-14 07:24:43 51°27.285 2°58.856 45.5 14.4 42 18
2004-04-14 07:25:43 51°27.462 2°59.118 45.7 14.5 43 21.3
2004-04-14 07:26:43 51°27.64 2°59.378 45.7 14.5 42 21.6
2004-04-14 07:27:43 51°27.819 2°59.637 45.9 14.5 43 19.5
2004-04-14 07:28:44 51°27.986 2°59.93 51.8 14.6 49 20.7
2004-04-14 07:29:43 51°28.122 3°0.247 60.5 14.7 56 20.7
2004-04-14 07:30:43 51°28.264 3°0.565 56.3 14.7 52 22.2
2004-04-14 07:31:44 51°28.421 3°0.876 55.4 14.7 51 23
2004-04-14 07:32:43 51°28.574 3°1.176 55.5 14.7 51 22.6
2004-04-14 07:33:43 51°28.729 3°1.48 55.3 14.7 51 23.6
2004-04-14 07:34:43 51°28.886 3°1.784 55.7 14.8 50 23.7
2004-04-14 07:35:44 51°29.045 3°2.096 55.8 14.8 51 23.6
2004-04-14 07:36:44 51°29.203 3°2.401 55.7 14.9 50 24.3
2004-04-14 07:37:43 51°29.356 3°2.704 55.8 14.9 51 24.1
2004-04-14 07:38:44 51°29.515 3°3.016 54.7 14.9 51 24.6
2004-04-14 07:39:41 51°29.663 3°3.308 55.4 14.8 51 24.5
2004-04-14 07:40:43 51°29.824 3°3.624 55.3 14.8 50 24.8
2004-04-14 07:41:44 51°29.983 3°3.935 55.7 14.8 50 24.9
2004-04-14 07:42:44 51°30.14 3°4.24 55.5 14.7 52 24.8
2004-04-14 07:43:43 51°30.293 3°4.536 55.3 14.7 51 24.4
2004-04-14 07:44:43 51°30.448 3°4.839 55.7 14.7 50 24.7
2004-04-14 07:45:43 51°30.604 3°5.142 55.8 14.8 51 24.6
2004-04-14 07:46:43 51°30.761 3°5.445 55.1 14.8 50 25.3
2004-04-14 07:47:43 51°30.916 3°5.749 55.1 14.8 50 24.1
2004-04-14 07:48:43 51°31.072 3°6.053 55.4 14.8 51 25
2004-04-14 07:49:44 51°31.23 3°6.364 55.8 14.8 51 25
2004-04-14 07:50:44 51°31.386 3°6.669 54.9 14.8 51 24.9
2004-04-14 07:51:43 51°31.54 3°6.969 54.5 14.8 50 24.7
2004-04-14 07:52:43 51°31.696 3°7.275 54.7 14.8 50 26
2004-04-14 07:53:43 51°31.851 3°7.58 55.2 14.7 51 25.7
2004-04-14 07:54:43 51°32.008 3°7.885 55.9 14.7 51 25.8
2004-04-14 07:55:44 51°32.167 3°8.195 55.1 14.8 50 25.9
2004-04-14 07:56:43 51°32.313 3°8.505 59.8 14.9 54 27
2004-04-14 07:57:44 51°32.46 3°8.831 59.4 14.9 55 28.2
2004-04-14 07:58:43 51°32.6 3°9.146 60.2 14.8 54 28.6
2004-04-14 07:59:43 51°32.741 3°9.466 59.8 14.7 54 29
2004-04-14 08:00:44 51°32.888 3°9.79 59 14.8 54 30
2004-04-14 08:01:44 51°33.033 3°10.11 59.4 14.9 54 29.5
2004-04-14 08:02:44 51°33.177 3°10.431 59.4 14.8 55 29.4
2004-04-14 08:03:43 51°33.319 3°10.748 59.1 14.8 54 31.2
2004-04-14 08:04:43 51°33.463 3°11.071 59.3 14.9 55 31.5
2004-04-14 08:05:43 51°33.608 3°11.393 59.3 14.9 54 31.4
2004-04-14 08:06:44 51°33.754 3°11.722 59.5 15 54 31.7
2004-04-14 08:07:43 51°33.895 3°12.041 59.5 15 56 31.8
2004-04-14 08:08:44 51°34.04 3°12.374 58.9 15 56 31.9
2004-04-14 08:09:44 51°34.181 3°12.702 59.5 15 56 32
2004-04-14 08:10:44 51°34.323 3°13.032 59.4 15 55 32
2004-04-14 08:11:43 51°34.464 3°13.351 59.5 14.8 54 32.3
2004-04-14 08:12:43 51°34.608 3°13.674 59.1 14.7 55 32.2
2004-04-14 08:13:44 51°34.752 3°14.001 59 14.7 54 32.2
2004-04-14 08:14:43 51°34.892 3°14.317 59.5 14.8 55 31.5
2004-04-14 08:15:44 51°35.036 3°14.644 58.9 14.8 54 31.7
2004-04-14 08:16:43 51°35.176 3°14.961 59.5 14.8 55 31.8
2004-04-14 08:17:43 51°35.32 3°15.283 59.6 14.9 55 32.3
2004-04-14 08:18:43 51°35.462 3°15.606 59.3 14.9 55 30.8
2004-04-14 08:19:44 51°35.607 3°15.937 59.5 14.9 55 28.8
2004-04-14 08:20:44 51°35.751 3°16.262 59.4 14.8 55 30.8
2004-04-14 08:21:43 51°35.891 3°16.58 59.6 14.8 55 30.4
2004-04-14 08:22:44 51°36.036 3°16.91 59.6 15 55 31.8
2004-04-14 08:23:43 51°36.177 3°17.23 59 15 54 31.9
2004-04-14 08:24:43 51°36.323 3°17.554 58.5 15 53 31.5
2004-04-14 08:25:43 51°36.474 3°17.88 59.8 15.3 53 31.4
2004-04-14 08:26:43 51°36.626 3°18.207 59.5 15.3 54 31.4
2004-04-14 08:27:44 51°36.78 3°18.539 59.2 15.2 54 31.5
2004-04-14 08:28:43 51°36.929 3°18.861 59.6 15.1 53 31.3
2004-04-14 08:29:43 51°37.145 3°19.048 21.5 15 18 30.1
2004-04-14 08:30:43 51°37.385 3°19.168 20.3 15.1 17 27.5
2004-04-14 08:31:43 51°37.626 3°19.292 20.5 15.2 18 16.8
2004-04-14 08:32:43 51°37.866 3°19.414 20.5 15 17 16.1
2004-04-14 08:33:43 51°38.102 3°19.532 21.2 14.9 16 13.1
2004-04-14 08:34:43 51°38.338 3°19.651 23.9 14.9 21 15.1
2004-04-14 08:35:43 51°38.562 3°19.82 33.3 14.9 30 17.4
2004-04-14 08:36:43 51°38.756 3°20.064 47.3 14.8 41 21.3
2004-04-14 08:37:43 51°38.935 3°20.339 50.6 14.9 46 20.4
2004-04-14 08:38:43 51°39.11 3°20.622 50.1 14.8 45 21
2004-04-14 08:39:43 51°39.286 3°20.902 50 14.8 44 21.6
2004-04-14 08:40:43 51°39.463 3°21.18 50 15 44 21.5
2004-04-14 08:41:43 51°39.635 3°21.467 54.5 14.9 49 22.3
2004-04-14 08:42:43 51°39.796 3°21.771 54.2 15 49 22.2
2004-04-14 08:43:43 51°39.96 3°22.072 54.3 14.9 48 22.8
2004-04-14 08:44:43 51°40.124 3°22.371 54.4 14.9 49 23.4
2004-04-14 08:45:43 51°40.289 3°22.67 54.5 14.9 48 24.3
2004-04-14 08:46:43 51°40.455 3°22.968 54.6 14.9 48 24.9
2004-04-14 08:47:43 51°40.621 3°23.267 54 15 49 26
2004-04-14 08:48:43 51°40.795 3°23.552 48.8 15 43 26.7
2004-04-14 08:49:43 51°40.978 3°23.824 48.7 15 43 27.4
2004-04-14 08:50:43 51°41.16 3°24.099 49.5 15 43 27.8
2004-04-14 08:51:43 51°41.342 3°24.373 49.3 15.1 43 28.3
2004-04-14 08:52:43 51°41.525 3°24.649 49.3 15.1 43 28.9
2004-04-14 08:53:43 51°41.707 3°24.924 49.3 15 43 29.1
2004-04-14 08:54:43 51°41.889 3°25.202 49.6 15.1 44 28.6
2004-04-14 08:55:43 51°42.073 3°25.478 48.9 15.2 43 27.3
2004-04-14 08:56:43 51°42.258 3°25.755 49.3 15.2 43 28
2004-04-14 08:57:43 51°42.442 3°26.033 48.6 15.1 43 27.6
2004-04-14 08:58:43 51°42.617 3°26.325 53.3 15.1 45 27.5
2004-04-14 08:59:44 51°42.793 3°26.622 53 14.9 50 29.6
2004-04-14 09:00:43 51°42.925 3°26.95 65.8 14.9 59 28.2
2004-04-14 09:01:43 51°43.053 3°27.29 65.5 14.9 59 24.9
2004-04-14 09:02:43 51°43.185 3°27.628 64.9 14.9 58 23.8
2004-04-14 09:03:43 51°43.318 3°27.965 62.4 14.9 56 22
2004-04-14 09:04:43 51°43.458 3°28.298 62.6 15 56 20.7
2004-04-14 09:05:43 51°43.595 3°28.631 62.3 15 57 19.1
2004-04-14 09:06:43 51°43.732 3°28.966 62.2 15 56 17.2
2004-04-14 09:07:43 51°43.869 3°29.303 62.6 15 57 18.9
2004-04-14 09:08:43 51°44.008 3°29.637 62.5 15 57 19.9
2004-04-14 09:09:43 51°44.133 3°29.985 69.7 14.9 64 19.1
2004-04-14 09:10:43 51°44.247 3°30.342 69.7 15 62 21.3
2004-04-14 09:11:43 51°44.364 3°30.698 70.4 15 63 21
2004-04-14 09:12:43 51°44.481 3°31.056 69.9 15.1 64 21.1
2004-04-14 09:13:43 51°44.583 3°31.427 73.9 15.1 66 20.4
2004-04-14 09:14:43 51°44.684 3°31.8 73.4 15.1 67 19.7
2004-04-14 09:15:43 51°44.771 3°32.18 76.7 15.1 71 17.6
2004-04-14 09:16:43 51°44.858 3°32.559 76.3 15 70 15.6
2004-04-14 09:17:43 51°44.941 3°32.937 76.3 14.9 70 14.2
2004-04-14 09:18:43 51°45.024 3°33.315 76.7 14.9 71 13.6
2004-04-14 09:19:43 51°45.107 3°33.69 76.2 14.8 70 13.5
2004-04-14 09:20:43 51°45.189 3°34.062 76.2 14.7 70 13.5
2004-04-14 09:21:43 51°45.272 3°34.434 76.1 14.7 70 13.9
2004-04-14 09:22:43 51°45.352 3°34.807 77.7 14.7 72 12.7
2004-04-14 09:23:43 51°45.426 3°35.184 78.2 14.8 72 13.9
2004-04-14 09:24:43 51°45.501 3°35.562 78.3 14.8 72 13.8
2004-04-14 09:25:43 51°45.576 3°35.938 77.9 14.2 72 12.7
2004-04-14 09:26:43 51°45.645 3°36.203 63.8 8.1 55 13.5
2004-04-14 09:27:43 51°45.688 3°36.312 91.6 1.9 57 13.3
2004-04-14 09:28:44 51°45.702 3°36.329 114.5 1.4 63 -999
2004-04-14 09:29:43 51°45.705 3°36.38 124.6 2.5 98 13
2004-04-14 09:30:43 51°45.688 3°36.46 138.6 3.5 117 12.9
2004-04-14 09:31:43 51°45.651 3°36.536 156.5 3.5 133 12.8
2004-04-14 09:32:43 51°45.609 3°36.593 166.2 3.1 145 12.3
2004-04-14 09:33:43 51°45.567 3°36.634 173.8 2.9 151 12.2
2004-04-14 09:34:43 51°45.524 3°36.665 180.2 2.8 158 12
2004-04-14 09:35:43 51°45.483 3°36.691 177.5 2.7 153 12
2004-04-14 09:36:43 51°45.443 3°36.727 177.8 2.6 155 11.9
2004-04-14 09:37:43 51°45.403 3°36.743 195.4 2.4 177 11.8
2004-04-14 09:38:42 51°45.365 3°36.732 212.3 2.4 202 11.6
2004-04-14 09:39:43 51°45.327 3°36.704 217 2.5 208 11.8
2004-04-14 09:40:43 51°45.291 3°36.67 222 2.5 216 11.5
2004-04-14 09:41:43 51°45.259 3°36.629 228 2.5 228 11.3
2004-04-14 09:42:43 51°45.231 3°36.58 233.4 2.5 228 11.5
2004-04-14 09:43:43 51°45.203 3°36.53 231 2.5 222 11.2
2004-04-14 09:44:43 51°45.173 3°36.481 229.3 2.6 226 11.2
2004-04-14 09:45:43 51°45.146 3°36.427 238.2 2.6 237 11.1
2004-04-14 09:46:43 51°45.124 3°36.366 240.2 2.6 238 11.2
2004-04-14 09:47:43 51°45.101 3°36.306 238 2.6 238 11.3
2004-04-14 09:48:43 51°45.076 3°36.249 236.3 2.6 237 11.3
2004-04-14 09:49:43 51°45.05 3°36.192 235.5 2.6 234 11.2
2004-04-14 09:50:44 51°45.023 3°36.135 234.2 2.6 231 11.4
2004-04-14 09:51:44 51°44.996 3°36.08 233.6 2.6 229 11.4
2004-04-14 09:52:44 51°44.967 3°36.026 232.7 2.6 232 11.4
2004-04-14 09:53:43 51°44.939 3°35.973 231.4 2.6 223 11.5
2004-04-14 09:54:43 51°44.909 3°35.922 230.4 2.6 227 11.5
2004-04-14 09:55:43 51°44.878 3°35.871 229 2.6 227 11.4
2004-04-14 09:56:42 51°44.848 3°35.822 228.4 2.6 229 11.5
2004-04-14 09:57:44 51°44.816 3°35.77 227.8 2.6 224 11.6
2004-04-14 09:58:44 51°44.784 3°35.72 228.3 2.7 223 11.4
2004-04-14 09:59:43 51°44.756 3°35.668 233.7 2.7 233 11.5
2004-04-14 10:00:44 51°44.732 3°35.607 239.9 2.7 243 11.5
2004-04-14 10:01:43 51°44.718 3°35.541 249.7 2.7 255 11.6
2004-04-14 10:02:44 51°44.713 3°35.466 260.1 2.8 266 11.8
2004-04-14 10:03:44 51°44.718 3°35.388 270.1 3 279 12.1
2004-04-14 10:04:43 51°44.733 3°35.31 281.2 3.2 293 12.4
2004-04-14 10:05:43 51°44.757 3°35.241 290.2 2.7 304 12.7
2004-04-14 10:06:43 51°44.785 3°35.19 294.4 2.3 315 12.8
2004-04-14 10:07:43 51°44.812 3°35.148 296.2 2.7 316 13
2004-04-14 10:08:44 51°44.867 3°35.118 348.3 3.8 355 13.3
2004-04-14 10:09:43 51°44.932 3°35.125 6.5 4 9 13.5
2004-04-14 10:10:43 51°44.995 3°35.157 22.8 3.9 23 13.6
2004-04-14 10:11:44 51°45.05 3°35.209 38.7 3.7 36 13.7
2004-04-14 10:12:43 51°45.092 3°35.269 53.5 3.3 48 13.7
2004-04-14 10:13:44 51°45.128 3°35.335 60 3.2 48 13.7
2004-04-14 10:14:43 51°45.163 3°35.397 56.7 3.1 47 13.6
2004-04-14 10:15:44 51°45.199 3°35.459 54.9 3.1 49 13.7
2004-04-14 10:16:44 51°45.234 3°35.521 57.2 3.1 48 13.5
2004-04-14 10:17:44 51°45.266 3°35.584 65.5 3 52 13.5
2004-04-14 10:18:44 51°45.294 3°35.651 71.5 3 57 13.2
2004-04-14 10:19:43 51°45.32 3°35.718 71.1 3 57 13.1
2004-04-14 10:20:43 51°45.346 3°35.785 69.8 3 57 13.1
2004-04-14 10:21:43 51°45.374 3°35.853 69.5 3 56 12.9
2004-04-14 10:22:43 51°45.402 3°35.92 69.1 3 55 13.2
2004-04-14 10:23:43 51°45.43 3°35.987 68.9 3 54 12.8
2004-04-14 10:24:43 51°45.458 3°36.054 68.7 3 55 13.1
2004-04-14 10:25:44 51°45.487 3°36.122 68.2 3 57 13
2004-04-14 10:26:44 51°45.516 3°36.191 68 3.2 55 12.9
2004-04-14 10:27:44 51°45.546 3°36.264 67.7 3.3 56 12.7
2004-04-14 10:28:44 51°45.577 3°36.34 68.1 3.4 57 12.7
2004-04-14 10:29:44 51°45.608 3°36.418 72.6 3.4 59 12.6
2004-04-14 10:30:44 51°45.635 3°36.498 76.5 3.4 63 12.6
2004-04-14 10:31:43 51°45.659 3°36.579 79.2 3.4 65 12.6
2004-04-14 10:32:43 51°45.681 3°36.661 82.5 3.4 66 12.5
2004-04-14 10:33:43 51°45.702 3°36.744 84.9 3.4 65 12.5
2004-04-14 10:34:43 51°45.72 3°36.828 87.7 3.3 72 12.3
2004-04-14 10:35:43 51°45.737 3°36.911 89.9 3.2 74 12.1
2004-04-14 10:36:43 51°45.75 3°36.993 92.5 3.1 74 11.9
2004-04-14 10:37:44 51°45.766 3°37.074 88 3.2 71 12.1
2004-04-14 10:38:44 51°45.785 3°37.154 82 3.2 66 12
2004-04-14 10:39:43 51°45.81 3°37.237 75 3.5 64 11.9
2004-04-14 10:40:43 51°45.834 3°37.313 84.1 2.9 64 11.8
2004-04-14 10:41:43 51°45.85 3°37.378 95 2.4 71 11.7
2004-04-14 10:42:44 51°45.861 3°37.435 107 2 76 11.7
2004-04-14 10:43:44 51°45.867 3°37.483 116.8 1.7 77 11.8
2004-04-14 10:44:44 51°45.872 3°37.524 126.5 1.5 80 11.6
2004-04-14 10:45:42 51°45.868 3°37.567 143.4 3.1 128 11.9
2004-04-14 10:46:42 51°45.795 3°37.579 207.3 6.2 207 11.4
2004-04-14 10:47:43 51°45.739 3°37.342 256.3 12.2 256 11.4
2004-04-14 10:48:44 51°45.684 3°37.003 256.5 13 256 11.5
2004-04-14 10:49:42 51°45.631 3°36.675 256.8 13.1 256 11.9
2004-04-14 10:50:43 51°45.577 3°36.33 256.9 13.1 256 12.3
2004-04-14 10:51:42 51°45.526 3°35.996 257.4 13 257 13
2004-04-14 10:52:43 51°45.474 3°35.65 257.5 13 257 13.3
2004-04-14 10:53:43 51°45.423 3°35.31 257.4 13 256 13.4
2004-04-14 10:54:43 51°45.37 3°34.97 254.8 13 252 13.9
2004-04-14 10:55:42 51°45.294 3°34.65 249.2 12.9 249 13.5
2004-04-14 10:56:43 51°45.216 3°34.318 250.1 13 250 13.2
2004-04-14 10:57:42 51°45.139 3°33.997 250.4 13.1 250 13
2004-04-14 10:58:43 51°45.057 3°33.666 247.3 13.1 246 12.9
2004-04-14 10:59:42 51°44.968 3°33.352 247.5 13.2 247 12.7
2004-04-14 11:00:44 51°44.879 3°33.017 248.9 13.2 247 12.6
2004-04-14 11:01:43 51°44.796 3°32.696 248.8 13.2 246 13.2
2004-04-14 11:02:44 51°44.708 3°32.362 249.7 13.2 247 14.8
2004-04-14 11:03:42 51°44.623 3°32.043 249.6 13.2 247 18.2
2004-04-14 11:04:42 51°44.508 3°31.748 234.8 12.9 233 18
2004-04-14 11:05:42 51°44.364 3°31.494 230.8 12.8 229 19.3
2004-04-14 11:06:42 51°44.213 3°31.254 226.1 12.8 223 19.3
2004-04-14 11:07:43 51°44.056 3°31.014 226.9 12.8 224 19.1
2004-04-14 11:08:44 51°43.902 3°30.773 228 12.7 226 19.1
2004-04-14 11:09:43 51°43.753 3°30.539 227 12.7 223 18.6
2004-04-14 11:10:42 51°43.604 3°30.304 226.9 12.7 226 19.3
2004-04-14 11:11:44 51°43.45 3°30.056 226.8 12.7 224 16.3
2004-04-14 11:12:43 51°43.302 3°29.819 227.2 12.7 225 18
2004-04-14 11:13:43 51°43.154 3°29.576 227 12.8 225 16.7
2004-04-14 11:14:43 51°43.005 3°29.332 227.7 12.7 227 16.6
2004-04-14 11:15:42 51°42.857 3°29.097 223.4 12.7 221 16.2
2004-04-14 11:16:43 51°42.695 3°28.869 223.6 12.6 221 15.7
2004-04-14 11:17:43 51°42.535 3°28.644 222.9 12.8 219 14.6
2004-04-14 11:18:42 51°42.373 3°28.438 220.8 12.5 218 11.9
2004-04-14 11:19:43 51°42.203 3°28.226 220.6 12.5 219 12.1
2004-04-14 11:20:44 51°42.035 3°28.009 220.9 12.7 218 13.8
2004-04-14 11:21:43 51°41.872 3°27.799 220.3 12.7 218 16
2004-04-14 11:22:44 51°41.704 3°27.58 220.6 12.7 219 17
2004-04-14 11:23:43 51°41.541 3°27.371 220.8 12.8 219 14.6
2004-04-14 11:24:42 51°41.379 3°27.161 219.9 12.8 219 18.5
2004-04-14 11:25:44 51°41.208 3°26.941 220.6 12.7 220 17.9
2004-04-14 11:26:41 51°41.051 3°26.742 220.2 12.7 218 17.9
2004-04-14 11:27:42 51°40.883 3°26.529 220.3 12.5 218 17.2
2004-04-14 11:28:43 51°40.716 3°26.318 220.6 12.5 218 17.5
2004-04-14 11:29:43 51°40.55 3°26.112 219.8 12.6 217 19.1
2004-04-14 11:30:43 51°40.384 3°25.907 220.5 12.5 217 19.8
2004-04-14 11:31:43 51°40.217 3°25.702 220.3 12.7 217 19.8
2004-04-14 11:32:43 51°40.049 3°25.496 219.9 12.6 217 20.3
2004-04-14 11:33:41 51°39.886 3°25.297 219.9 12.7 217 20.8
2004-04-14 11:34:44 51°39.709 3°25.079 220.5 12.7 218 21
2004-04-14 11:35:42 51°39.547 3°24.876 220.8 12.7 218 21.3
2004-04-14 11:36:44 51°39.372 3°24.661 219.9 12.7 217 21
2004-04-14 11:37:43 51°39.207 3°24.447 220.1 13.1 219 21
2004-04-14 11:38:43 51°39.038 3°24.224 219.9 13.1 219 21
2004-04-14 11:39:42 51°38.873 3°24.004 219.9 13.1 220 20.7
2004-04-14 11:40:42 51°38.707 3°23.777 220 13.1 220 20.3
2004-04-14 11:41:42 51°38.535 3°23.562 214 12.8 207 19.8
2004-04-14 11:42:42 51°38.327 3°23.486 187.9 12.7 186 18.4
2004-04-14 11:43:42 51°38.113 3°23.468 184.2 12.9 183 17
2004-04-14 11:44:43 51°37.894 3°23.446 186.1 13 185 15.9
2004-04-14 11:45:42 51°37.684 3°23.421 186.1 13 184 15.2
2004-04-14 11:46:42 51°37.47 3°23.417 179.2 12.8 178 13.8
2004-04-14 11:47:43 51°37.257 3°23.461 173.5 12.8 171 13.2
2004-04-14 11:48:43 51°37.047 3°23.506 174.8 12.7 173 12.9
2004-04-14 11:49:42 51°36.839 3°23.556 170.5 12.9 168 12.7
2004-04-14 11:50:44 51°36.629 3°23.66 161.6 12.8 158 12.3
2004-04-14 11:51:43 51°36.45 3°23.829 152.9 12.8 150 12.2
2004-04-14 11:52:44 51°36.268 3°24.008 152.4 12.2 148 12.3
2004-04-14 11:53:43 51°36.174 3°24.128 138.9 5 128 12.5
2004-04-14 11:54:43 51°36.162 3°24.205 99.8 1.4 49 12.6
2004-04-14 11:55:43 51°36.184 3°24.223 66.5 1.5 23 12.7
2004-04-14 11:56:42 51°36.209 3°24.234 59.2 1.6 11 12.6
2004-04-14 11:57:43 51°36.236 3°24.243 58.7 1.5 12 12.6
2004-04-14 11:58:43 51°36.262 3°24.25 61.6 1.5 10 12.6
2004-04-14 11:59:43 51°36.286 3°24.256 65.4 1.5 8 12.7
2004-04-14 12:00:43 51°36.312 3°24.287 86.5 2.6 55 12.8
2004-04-14 12:01:43 51°36.331 3°24.371 97.2 3.7 75 12.7
2004-04-14 12:02:43 51°36.344 3°24.472 98.7 4 80 12.1
2004-04-14 12:03:43 51°36.358 3°24.579 95.4 4.1 78 12.9
2004-04-14 12:04:43 51°36.375 3°24.676 90.7 3.7 70 12.2
2004-04-14 12:05:43 51°36.396 3°24.764 91.9 3.3 71 11.3
2004-04-14 12:06:42 51°36.409 3°24.843 98.9 3.1 77 12.6
2004-04-14 12:07:43 51°36.419 3°24.924 100.1 3 78 12.9
2004-04-14 12:08:42 51°36.429 3°25.002 99.7 3 77 12
2004-04-14 12:09:43 51°36.438 3°25.081 102 2.9 84 11.8
2004-04-14 12:10:42 51°36.446 3°25.157 99.1 3 78 12
2004-04-14 12:11:43 51°36.456 3°25.237 99 3.1 80 11.9
2004-04-14 12:12:42 51°36.464 3°25.318 99.7 3.2 80 11.4
2004-04-14 12:13:40 51°36.472 3°25.399 99 3.2 81 11.1
2004-04-14 12:14:42 51°36.48 3°25.485 98.9 3.2 80 11.3
2004-04-14 12:15:43 51°36.488 3°25.57 100.4 3.1 83 10.1
2004-04-14 12:16:42 51°36.494 3°25.651 99.5 3.1 81 11.1
2004-04-14 12:17:42 51°36.501 3°25.733 99.8 3 84 11
2004-04-14 12:18:43 51°36.507 3°25.815 99.5 3.1 84 10.6
2004-04-14 12:19:42 51°36.513 3°25.896 98.8 3.1 85 10.6
2004-04-14 12:20:43 51°36.518 3°25.978 99.7 3 87 11.1
2004-04-14 12:21:43 51°36.524 3°26.058 98.7 3.1 83 11.7
2004-04-14 12:22:44 51°36.53 3°26.141 99 3.1 85 11.4
2004-04-14 12:23:44 51°36.536 3°26.223 99.3 3.1 85 10.1
2004-04-14 12:24:43 51°36.536 3°26.302 104.4 3 89 11.4
2004-04-14 12:25:42 51°36.538 3°26.379 100.4 2.9 86 11.6
2004-04-14 12:26:44 51°36.544 3°26.46 96.8 3 80 11.4
2004-04-14 12:27:44 51°36.553 3°26.538 92.9 3 75 10.2
2004-04-14 12:28:44 51°36.567 3°26.612 89.8 2.7 69 11.7
2004-04-14 12:29:43 51°36.574 3°26.672 109.2 2.2 88 11.2
2004-04-14 12:30:43 51°36.563 3°26.717 134.7 2 131 11.2
2004-04-14 12:31:43 51°36.524 3°26.719 198 3.3 210 11.5
2004-04-14 12:32:43 51°36.479 3°26.66 211.9 3.7 223 11.1
2004-04-14 12:33:44 51°36.438 3°26.577 229.9 4 240 11.2
2004-04-14 12:34:44 51°36.413 3°26.48 246 3.9 254 11.2
2004-04-14 12:35:44 51°36.404 3°26.379 255.7 3.7 264 11.6
2004-04-14 12:36:42 51°36.398 3°26.286 253.2 3.6 263 10.9
2004-04-14 12:37:43 51°36.388 3°26.192 249.1 3.5 259 10.5
2004-04-14 12:38:42 51°36.376 3°26.101 248.3 3.5 258 11.7
2004-04-14 12:39:43 51°36.365 3°26.008 249.6 3.5 258 10.8
2004-04-14 12:40:43 51°36.354 3°25.915 249.6 3.5 258 10.9
2004-04-14 12:41:43 51°36.344 3°25.822 249.6 3.6 260 10.5
2004-04-14 12:42:43 51°36.333 3°25.728 249.5 3.5 259 11
2004-04-14 12:43:44 51°36.322 3°25.633 249.1 3.5 259 11.5
2004-04-14 12:44:44 51°36.311 3°25.541 249.4 3.6 262 10.4
2004-04-14 12:45:43 51°36.301 3°25.451 249.5 3.5 260 11.6
2004-04-14 12:46:43 51°36.292 3°25.361 249.9 3.4 262 10.1
2004-04-14 12:47:42 51°36.283 3°25.275 249.5 3.3 261 11.6
2004-04-14 12:48:44 51°36.274 3°25.185 249.1 3.3 258 10.8
2004-04-14 12:49:42 51°36.265 3°25.1 249.3 3.4 261 10.9
2004-04-14 12:50:44 51°36.255 3°25.011 248.9 3.3 261 12.1
2004-04-14 12:51:43 51°36.246 3°24.926 248.9 3.3 260 12.2
2004-04-14 12:52:43 51°36.237 3°24.84 250 3.3 259 12.2
2004-04-14 12:53:42 51°36.229 3°24.755 250 3.3 261 11.1
2004-04-14 12:54:43 51°36.22 3°24.666 249.7 3.3 260 11.3
2004-04-14 12:55:43 51°36.21 3°24.58 248.5 3.3 259 11.6
2004-04-14 12:56:43 51°36.2 3°24.494 248.6 3.3 261 11.9
2004-04-14 12:57:43 51°36.19 3°24.407 249.7 3.3 259 12.1
2004-04-14 12:58:44 51°36.183 3°24.318 253 3.3 264 12.1
2004-04-14 12:59:43 51°36.181 3°24.23 264 3.4 271 12
2004-04-14 13:00:43 51°36.189 3°24.139 277.5 3.5 284 12
2004-04-14 13:01:44 51°36.207 3°24.049 289.4 3.5 290 11.8
2004-04-14 13:02:42 51°36.232 3°23.963 300 3.9 296 11.6
2004-04-14 13:03:42 51°36.266 3°23.868 306.3 4 301 11.4
2004-04-14 13:04:42 51°36.3 3°23.787 312.6 3.4 307 12
2004-04-14 13:05:43 51°36.335 3°23.718 320 3.2 311 12
2004-04-14 13:06:44 51°36.375 3°23.669 347.6 2.7 326 11.7
2004-04-14 13:07:44 51°36.401 3°23.638 1.5 1.9 324 11.6
2004-04-14 13:08:43 51°36.424 3°23.61 0.7 1.8 321 11.4
2004-04-14 13:09:42 51°36.454 3°23.583 359.9 3.6 341 11.5
2004-04-14 13:10:44 51°36.535 3°23.638 64.4 6.7 56 11.4
2004-04-14 13:11:42 51°36.498 3°23.796 146.2 8.2 145 11.7
2004-04-14 13:12:44 51°36.358 3°23.962 141.3 10.7 139 11.2
2004-04-14 13:13:44 51°36.207 3°24.122 154.4 11 154 11.6
2004-04-14 13:14:44 51°36.056 3°24.288 143 11.2 141 11.5
2004-04-14 13:15:44 51°35.913 3°24.473 144.1 11 142 11.9
2004-04-14 13:16:42 51°35.773 3°24.649 144.7 11 142 10.1
2004-04-14 13:17:44 51°35.625 3°24.839 143.7 11 142 10.4
2004-04-14 13:18:42 51°35.48 3°25.003 150.6 11 149 10.7
2004-04-14 13:19:42 51°35.325 3°25.159 148.3 10.9 146 9.2
2004-04-14 13:20:43 51°35.218 3°25.311 136.5 5.5 136 10.5
2004-04-14 13:21:44 51°35.156 3°25.328 185.5 3 195 10.3
2004-04-14 13:22:43 51°35.12 3°25.295 201.9 2.4 221 10.2
2004-04-14 13:23:44 51°35.094 3°25.254 203.1 2.1 230 10.2
2004-04-14 13:24:44 51°35.073 3°25.221 195.6 1.6 225 9.8
2004-04-14 13:25:43 51°35.055 3°25.197 184.8 1.2 216 9.7
2004-04-14 13:26:43 51°35.041 3°25.178 174.3 1 215 9.5
2004-04-14 13:27:44 51°35.029 3°25.164 164.5 0.8 214 9.6
2004-04-14 13:28:44 51°35.007 3°25.161 160.2 2.7 171 9.5
2004-04-14 13:29:44 51°34.914 3°25.04 241.6 9.7 247 10.5
2004-04-14 13:30:44 51°34.935 3°24.736 286.7 13.5 284 10.7
2004-04-14 13:31:44 51°34.976 3°24.363 279.9 14.4 277 10.2
2004-04-14 13:32:44 51°34.943 3°23.988 255.2 14.3 254 10.8
2004-04-14 13:33:42 51°34.885 3°23.628 257 14.4 256 10.2
2004-04-14 13:34:43 51°34.824 3°23.252 256.7 14.3 256 9.3
2004-04-14 13:35:44 51°34.764 3°22.872 257.4 14.5 256 9.4
2004-04-14 13:36:44 51°34.704 3°22.496 257.1 14.2 256 8.4
2004-04-14 13:37:44 51°34.644 3°22.127 255.4 14.4 253 8.2
2004-04-14 13:38:43 51°34.591 3°21.756 257.8 14.4 255 8.2
2004-04-14 13:39:44 51°34.53 3°21.376 260.8 14.5 259 8.7
2004-04-14 13:40:44 51°34.47 3°21.001 257.5 14.7 256 8.7
2004-04-14 13:41:44 51°34.407 3°20.626 257.4 14.4 255 9.3
2004-04-14 13:42:44 51°34.305 3°20.28 238.7 14.4 237 10.3
2004-04-14 13:43:43 51°34.192 3°19.949 243.7 14.4 241 10.7
2004-04-14 13:44:43 51°34.081 3°19.609 243.9 14.4 243 11.4
2004-04-14 13:45:43 51°33.972 3°19.266 245.1 14.3 243 12.7
2004-04-14 13:46:43 51°33.864 3°18.927 245 14.3 243 12.9
2004-04-14 13:47:43 51°33.758 3°18.588 245 14.2 244 12.2
2004-04-14 13:48:43 51°33.652 3°18.249 245.3 14.2 244 12.2
2004-04-14 13:49:43 51°33.547 3°17.91 245.4 14.1 243 12.3
2004-04-14 13:50:43 51°33.443 3°17.57 245.5 14.2 244 12
2004-04-14 13:51:44 51°33.338 3°17.223 245.6 14.3 244 12.4
2004-04-14 13:52:43 51°33.236 3°16.887 245.8 14.2 244 12.6
2004-04-14 13:53:43 51°33.132 3°16.547 245.6 14.2 243 13.3
2004-04-14 13:54:43 51°33.027 3°16.204 245.8 14.3 244 13.7
2004-04-14 13:55:43 51°32.921 3°15.862 245.3 14.3 244 14.1
2004-04-14 13:56:43 51°32.816 3°15.519 245.4 14.3 244 14.6
2004-04-14 13:57:43 51°32.71 3°15.177 245.4 14.3 243 15.3
2004-04-14 13:58:43 51°32.603 3°14.835 245.1 14.3 244 15.5
2004-04-14 13:59:43 51°32.492 3°14.499 242.4 14.3 241 16.2
2004-04-14 14:00:43 51°32.377 3°14.163 243.5 14.3 241 16.5
2004-04-14 14:01:43 51°32.263 3°13.827 243.6 14.3 240 16.9
2004-04-14 14:02:43 51°32.148 3°13.494 243.1 14.3 241 17.5
2004-04-14 14:03:43 51°32.032 3°13.161 243 14.3 241 18.2
2004-04-14 14:04:43 51°31.916 3°12.827 242.7 14.3 240 18.4
2004-04-14 14:05:43 51°31.799 3°12.495 241.3 14.3 239 18.1
2004-04-14 14:06:43 51°31.675 3°12.17 240.4 14.3 239 18
2004-04-14 14:07:43 51°31.55 3°11.847 240.1 14.2 238 18.2
2004-04-14 14:08:44 51°31.421 3°11.52 240 14.3 237 18.4
2004-04-14 14:09:43 51°31.295 3°11.204 240.1 14.3 237 18.8
2004-04-14 14:10:43 51°31.167 3°10.882 240 14.3 237 18.6
2004-04-14 14:11:43 51°31.038 3°10.562 240.6 14.3 238 18.6
2004-04-14 14:12:43 51°30.909 3°10.24 240.2 14.4 238 18.1
2004-04-14 14:13:43 51°30.779 3°9.918 240.2 14.4 237 17.8
2004-04-14 14:14:44 51°30.647 3°9.591 240.3 14.3 237 17.8
2004-04-14 14:15:43 51°30.52 3°9.277 240.3 14.3 237 18
2004-04-14 14:16:44 51°30.386 3°8.948 240.6 14.3 237 18.2
2004-04-14 14:17:43 51°30.258 3°8.631 240.2 14.4 238 17.9
2004-04-14 14:18:43 51°30.129 3°8.309 240.4 14.3 237 18.3
2004-04-14 14:19:43 51°30 3°7.988 240.2 14.3 236 18.4
2004-04-14 14:20:43 51°29.871 3°7.665 240.2 14.4 237 18.4
2004-04-14 14:21:43 51°29.742 3°7.341 240.1 14.5 237 18.3
2004-04-14 14:22:43 51°29.613 3°7.016 241.1 14.5 238 18.4
2004-04-14 14:23:43 51°29.481 3°6.689 240.2 14.5 237 18.5
2004-04-14 14:24:44 51°29.349 3°6.359 240.1 14.5 237 18.6
2004-04-14 14:25:43 51°29.221 3°6.04 240.2 14.5 237 18.8
2004-04-14 14:26:43 51°29.091 3°5.715 240.2 14.5 237 19.2
2004-04-14 14:27:44 51°28.96 3°5.384 239.6 14.5 237 19.4
2004-04-14 14:28:43 51°28.833 3°5.063 240.3 14.5 238 19.8
2004-04-14 14:29:43 51°28.704 3°4.738 240 14.5 237 20.1
2004-04-14 14:30:43 51°28.576 3°4.411 239.9 14.5 238 20.4
2004-04-14 14:31:43 51°28.448 3°4.083 240.1 14.5 238 20.7
2004-04-14 14:32:43 51°28.319 3°3.756 240.1 14.5 237 20.9
2004-04-14 14:33:43 51°28.186 3°3.431 240.8 14.6 237 21.2
2004-04-14 14:34:43 51°28.052 3°3.105 241 14.6 237 21.5
2004-04-14 14:35:43 51°27.917 3°2.781 239.6 14.6 236 21.5
2004-04-14 14:36:43 51°27.783 3°2.457 240.5 14.6 237 21.7
2004-04-14 14:37:44 51°27.65 3°2.125 242.9 14.6 241 22
2004-04-14 14:38:43 51°27.552 3°1.78 243.8 14.6 239 21.8
2004-04-14 14:39:43 51°27.415 3°1.457 239.5 14.7 235 20.4
2004-04-14 14:40:43 51°27.278 3°1.132 239.6 14.8 236 19.8
2004-04-14 14:41:43 51°27.138 3°0.807 240 14.7 235 22.1
2004-04-14 14:42:43 51°26.999 3°0.485 240 14.6 235 23.5
2004-04-14 14:43:44 51°26.859 3°0.157 240 14.7 236 23.9
2004-04-14 14:44:43 51°26.707 2°59.859 233.7 14.8 230 23.9
2004-04-14 14:45:44 51°26.548 2°59.551 233.8 14.8 231 23.9
2004-04-14 14:46:43 51°26.393 2°59.252 233.8 14.8 230 23.8
2004-04-14 14:47:43 51°26.237 2°58.947 233.3 14.8 230 23.8
2004-04-14 14:48:43 51°26.082 2°58.64 234.9 14.8 231 23.9
2004-04-14 14:49:43 51°25.911 2°58.357 226.3 14.8 224 23.8
2004-04-14 14:50:43 51°25.735 2°58.081 226.4 14.9 224 24
2004-04-14 14:51:43 51°25.555 2°57.813 219.6 14.7 218 23.2
2004-04-14 14:52:43 51°25.356 2°57.581 217.3 14.8 216 23.7
2004-04-14 14:53:43 51°25.159 2°57.347 218.1 14.7 217 23
2004-04-14 14:54:43 51°24.955 2°57.134 205.8 14.6 205 21.8
2004-04-14 14:55:43 51°24.733 2°56.978 204 14.7 204 20.2
2004-04-14 14:56:43 51°24.508 2°56.818 204.3 14.8 204 18.2
2004-04-14 14:57:44 51°24.28 2°56.654 204.9 14.6 205 15.1
2004-04-14 14:58:43 51°24.06 2°56.496 204.7 14.8 204 15.8
2004-04-14 14:59:43 51°23.835 2°56.334 204.7 14.8 204 15.4
2004-04-14 15:00:43 51°23.61 2°56.172 205.4 14.9 205 16.7
2004-04-14 15:01:43 51°23.385 2°56.007 205.8 14.9 206 18.4
2004-04-14 15:02:43 51°23.159 2°55.843 205.4 14.8 204 18.4
2004-04-14 15:03:43 51°22.934 2°55.676 205.9 15 206 17.8
2004-04-14 15:04:44 51°22.705 2°55.509 205.5 14.8 205 17.4
2004-04-14 15:05:43 51°22.484 2°55.348 205 14.9 204 17.1
2004-04-14 15:06:43 51°22.261 2°55.185 205.6 14.7 205 17.9
2004-04-14 15:07:44 51°22.033 2°55.018 205.6 14.8 204 17.1
2004-04-14 15:08:43 51°21.813 2°54.859 205 15 205 16.5
2004-04-14 15:09:43 51°21.586 2°54.699 205.7 14.7 203 16.3
2004-04-14 15:10:43 51°21.361 2°54.537 205.7 14.7 204 16.2
2004-04-14 15:11:43 51°21.136 2°54.373 205.8 14.9 204 15.9
2004-04-14 15:12:43 51°20.909 2°54.212 205 15 204 15.7
2004-04-14 15:13:43 51°20.683 2°54.049 205.2 14.9 204 15.5
2004-04-14 15:14:43 51°20.456 2°53.884 205.4 14.9 205 15.3
2004-04-14 15:15:43 51°20.23 2°53.717 204.8 14.9 205 15
2004-04-14 15:16:43 51°20.005 2°53.554 204.9 14.8 205 14.4
2004-04-14 15:17:43 51°19.782 2°53.393 204.1 14.9 204 13.7
2004-04-14 15:18:43 51°19.555 2°53.24 203.2 14.7 202 12.9
2004-04-14 15:19:43 51°19.328 2°53.087 203 14.7 203 12.3
2004-04-14 15:20:43 51°19.099 2°52.932 202.8 14.8 202 11.6
2004-04-14 15:21:43 51°18.867 2°52.79 197.7 14.8 198 11.1
2004-04-14 15:22:43 51°18.631 2°52.666 198.3 15.3 199 10.6
2004-04-14 15:23:43 51°18.396 2°52.545 197.5 15 198 10.2
2004-04-14 15:24:43 51°18.16 2°52.422 198.1 15 198 9.8
2004-04-14 15:25:43 51°17.923 2°52.31 194.5 14.8 194 9.5
2004-04-14 15:26:43 51°17.681 2°52.238 188 14.8 188 9.5
2004-04-14 15:27:44 51°17.436 2°52.236 171.7 14.3 170 9.5
2004-04-14 15:28:43 51°17.202 2°52.299 170.5 14.6 171 9.4
2004-04-14 15:29:43 51°16.969 2°52.386 163.7 14.2 163 8.7
2004-04-14 15:30:43 51°16.741 2°52.497 162.8 14.3 163 8.8
2004-04-14 15:31:43 51°16.518 2°52.633 156.3 14.3 156 10.7
2004-04-14 15:32:43 51°16.311 2°52.813 148.4 13.8 149 11.5
2004-04-14 15:33:43 51°16.111 2°52.994 147.3 13.8 150 11.4
2004-04-14 15:34:43 51°15.913 2°53.174 147.1 13.7 149 10.9
2004-04-14 15:35:43 51°15.717 2°53.361 145.5 13.8 148 10.4
2004-04-14 15:36:43 51°15.522 2°53.55 146.3 13.6 148 9.8
2004-04-14 15:37:43 51°15.332 2°53.75 143.7 13.5 145 9
2004-04-14 15:38:43 51°15.144 2°53.948 144 13.6 146 8.4
2004-04-14 15:39:43 51°14.963 2°54.157 139.9 13.3 141 7.8
2004-04-14 15:40:43 51°14.782 2°54.37 142.4 13.7 142 8.9
2004-04-14 15:41:44 51°14.606 2°54.606 138.5 13.5 139 8.9